Time;durP1;ratioP1;P1;durP2;ratioP2;P2;SDS_P1;SDS_P2;PMS_P1;PMS_P2;Temp;Humidity;BMP_temperature;BMP_pressure;BME280_temperature;BME280_humidity;BME280_pressure;Samples;Min_cycle;Max_cycle;Signal;HPM_P1;HPM_P2
2022/01/09 00:00:29;;;;;;;29.20;21.00;;;;;;;1.26;81.04;96525.79;110157;1249;68578;-70
2022/01/09 00:03:08;;;;;;;23.70;19.00;;;;;;;1.28;80.98;96524.30;110192;1248;68848;-72
2022/01/09 00:05:37;;;;;;;26.30;18.50;;;;;;;1.31;80.48;96523.50;110176;1250;59695;-73
2022/01/09 00:08:07;;;;;;;30.50;23.10;;;;;;;1.32;80.60;96524.27;110240;1249;59750;-69
2022/01/09 00:10:36;;;;;;;25.80;15.10;;;;;;;1.33;80.34;96517.02;110166;1248;72243;-71
2022/01/09 00:13:05;;;;;;;23.60;18.80;;;;;;;1.34;80.03;96515.43;109853;1250;67862;-71
2022/01/09 00:15:34;;;;;;;27.20;19.70;;;;;;;1.33;80.17;96509.80;110145;1247;68680;-71
2022/01/09 00:18:03;;;;;;;27.90;20.00;;;;;;;1.33;80.28;96511.70;110112;1249;59734;-71
2022/01/09 00:20:32;;;;;;;38.10;25.80;;;;;;;1.33;81.00;96509.99;110181;1249;59668;-70
2022/01/09 00:23:02;;;;;;;46.80;31.40;;;;;;;1.32;81.00;96506.57;109981;1250;71609;-72
2022/01/09 00:25:31;;;;;;;39.20;28.00;;;;;;;1.27;81.88;96500.48;110143;1249;67878;-73
2022/01/09 00:28:00;;;;;;;49.90;31.50;;;;;;;1.23;82.33;96507.56;110064;1250;69389;-73
2022/01/09 00:30:29;;;;;;;53.20;33.80;;;;;;;1.18;83.32;96512.42;109943;1250;59680;-70
2022/01/09 00:32:58;;;;;;;43.50;30.40;;;;;;;1.10;83.24;96511.83;110166;1249;59676;-71
2022/01/09 00:35:28;;;;;;;28.90;19.70;;;;;;;1.04;82.87;96507.50;110158;1249;72175;-70
2022/01/09 00:37:57;;;;;;;48.10;29.20;;;;;;;1.04;82.02;96503.39;110148;1249;68859;-71
2022/01/09 00:40:26;;;;;;;51.00;34.90;;;;;;;1.04;82.76;96501.83;110150;1248;70157;-72
2022/01/09 00:42:56;;;;;;;65.90;40.20;;;;;;;0.97;84.47;96495.30;109950;1250;59776;-71
2022/01/09 00:45:25;;;;;;;74.00;44.00;;;;;;;0.90;84.73;96498.37;110181;1249;59675;-70
2022/01/09 00:47:56;;;;;;;75.80;43.80;;;;;;;0.81;85.75;96494.54;110112;1249;71074;-72
2022/01/09 00:50:26;;;;;;;52.80;31.60;;;;;;;0.74;86.61;96494.19;109991;1250;68421;-72
2022/01/09 00:52:55;;;;;;;75.30;43.00;;;;;;;0.73;86.29;96495.41;110018;1250;68616;-72
2022/01/09 00:55:24;;;;;;;71.60;41.90;;;;;;;0.70;86.77;96498.14;110037;1250;59672;-71
2022/01/09 00:57:54;;;;;;;60.00;35.80;;;;;;;0.66;87.39;96497.48;110208;1249;59710;-72
2022/01/09 01:00:23;;;;;;;67.80;41.10;;;;;;;0.64;87.37;96496.75;109955;1249;71454;-72
2022/01/09 01:02:52;;;;;;;67.50;40.10;;;;;;;0.59;87.72;96491.29;110142;1250;69086;-72
2022/01/09 01:05:21;;;;;;;95.40;45.10;;;;;;;0.56;87.85;96489.23;110214;1250;70107;-70
2022/01/09 01:07:50;;;;;;;92.10;45.60;;;;;;;0.51;88.20;96490.63;110170;1249;59754;-71
2022/01/09 01:10:19;;;;;;;80.90;45.80;;;;;;;0.45;88.69;96495.37;110198;1250;59712;-73
2022/01/09 01:12:49;;;;;;;81.00;43.70;;;;;;;0.40;88.94;96494.77;110136;1248;72381;-72
2022/01/09 01:15:18;;;;;;;79.40;43.50;;;;;;;0.35;89.34;96489.83;110176;1250;67650;-71
2022/01/09 01:17:47;;;;;;;75.30;41.50;;;;;;;0.34;89.52;96487.83;110115;1249;68635;-69
2022/01/09 01:20:22;;;;;;;70.20;39.30;;;;;;;0.34;89.52;96484.07;110206;1250;59682;-72
2022/01/09 01:22:52;;;;;;;72.00;38.70;;;;;;;0.34;89.32;96486.46;110218;1249;59636;-72
2022/01/09 01:25:21;;;;;;;64.60;37.60;;;;;;;0.37;88.80;96490.08;110170;1249;71599;-70
2022/01/09 01:27:51;;;;;;;72.60;39.70;;;;;;;0.37;88.76;96490.44;110164;1250;67113;-73
2022/01/09 01:30:20;;;;;;;56.80;33.90;;;;;;;0.34;88.94;96489.91;110157;1250;67565;-72
2022/01/09 01:32:50;;;;;;;55.10;32.20;;;;;;;0.33;88.92;96486.19;110189;1250;59782;-72
2022/01/09 01:35:19;;;;;;;61.80;37.20;;;;;;;0.31;88.90;96482.00;110208;1248;59748;-71
2022/01/09 01:37:49;;;;;;;53.70;31.10;;;;;;;0.25;89.03;96480.73;110156;1249;71803;-69
2022/01/09 01:40:19;;;;;;;73.30;41.70;;;;;;;0.22;89.10;96479.99;109791;1250;67843;-73
2022/01/09 01:42:49;;;;;;;70.90;40.00;;;;;;;0.19;89.20;96474.50;110140;1250;69412;-71
2022/01/09 01:45:18;;;;;;;63.80;35.90;;;;;;;0.18;89.31;96474.52;110130;1250;59697;-69
2022/01/09 01:47:48;;;;;;;62.20;35.30;;;;;;;0.17;89.24;96473.04;110163;1249;59691;-71
2022/01/09 01:50:19;;;;;;;53.70;31.80;;;;;;;0.19;89.05;96468.33;110116;1250;70525;-69
2022/01/09 01:52:50;;;;;;;58.70;35.10;;;;;;;0.20;88.77;96468.27;110205;1250;69081;-69
2022/01/09 01:55:20;;;;;;;59.70;34.40;;;;;;;0.21;89.02;96469.05;110200;1248;69394;-72
2022/01/09 01:57:49;;;;;;;54.20;30.20;;;;;;;0.22;89.07;96468.33;110146;1250;59676;-70
2022/01/09 02:00:20;;;;;;;51.70;32.80;;;;;;;0.23;89.03;96468.31;110203;1250;59820;-72
2022/01/09 02:02:49;;;;;;;64.70;35.60;;;;;;;0.22;89.17;96465.98;109961;1250;71603;-72
2022/01/09 02:05:19;;;;;;;;;;;;;;;0.20;89.24;96465.86;109937;1250;67821;-69
2022/01/09 02:07:51;;;;;;;53.80;31.10;;;;;;;0.21;88.94;96464.81;110049;1250;68515;-72
2022/01/09 02:10:21;;;;;;;55.00;31.50;;;;;;;0.20;88.96;96461.78;110275;1249;59758;-72
2022/01/09 02:12:53;;;;;;;54.20;33.30;;;;;;;0.21;88.81;96459.33;109942;1250;59649;-73
2022/01/09 02:15:35;;;;;;;39.40;22.70;;;;;;;0.22;88.40;96453.45;110198;1248;70743;-72
2022/01/09 02:18:12;;;;;;;42.90;25.40;;;;;;;0.25;87.69;96452.27;110172;1248;68425;-72
2022/01/09 02:20:42;;;;;;;54.00;31.10;;;;;;;0.26;87.32;96447.42;110125;1249;69483;-73
2022/01/09 02:23:14;;;;;;;54.20;33.20;;;;;;;0.22;88.17;96446.27;110118;1249;59702;-72
2022/01/09 02:25:46;;;;;;;57.00;31.50;;;;;;;0.15;88.50;96440.56;110204;1250;59633;-72
2022/01/09 02:28:18;;;;;;;62.10;31.10;;;;;;;0.11;88.88;96434.44;110185;1250;71584;-72
2022/01/09 02:30:49;;;;;;;56.20;31.60;;;;;;;0.08;89.09;96434.90;110208;1250;67730;-72
2022/01/09 02:33:19;;;;;;;54.90;30.80;;;;;;;0.10;88.71;96433.83;110177;1249;69384;-72
2022/01/09 02:35:51;;;;;;;42.60;27.10;;;;;;;0.07;88.76;96430.16;110206;1250;59708;-71
2022/01/09 02:38:21;;;;;;;53.40;30.30;;;;;;;0.04;89.16;96427.06;109961;1250;59707;-73
2022/01/09 02:40:54;;;;;;;55.90;32.20;;;;;;;-0.02;89.52;96419.44;110145;1250;71518;-73
2022/01/09 02:43:24;;;;;;;43.20;25.00;;;;;;;-0.04;89.47;96422.44;110191;1250;67620;-72
2022/01/09 02:46:03;;;;;;;54.40;30.10;;;;;;;-0.01;89.26;96426.75;110108;1250;68570;-71
2022/01/09 02:48:36;;;;;;;45.00;28.20;;;;;;;-0.04;89.23;96420.55;110112;1250;59585;-71
2022/01/09 02:51:12;;;;;;;34.30;19.80;;;;;;;-0.02;89.04;96421.84;110169;1250;59735;-72
2022/01/09 02:53:47;;;;;;;31.80;16.90;;;;;;;0.01;88.63;96415.38;110152;1250;70671;-73
2022/01/09 02:56:16;;;;;;;26.90;16.70;;;;;;;0.03;88.04;96409.94;110163;1250;68640;-73
2022/01/09 02:58:46;;;;;;;37.80;22.30;;;;;;;0.06;87.76;96407.94;110118;1250;68754;-72
2022/01/09 03:01:16;;;;;;;38.50;23.20;;;;;;;0.02;88.04;96408.63;110164;1250;59754;-71
2022/01/09 03:03:45;;;;;;;33.00;19.90;;;;;;;-0.02;88.14;96406.08;109975;1250;59680;-74
2022/01/09 03:06:15;;;;;;;39.90;24.70;;;;;;;-0.03;88.27;96408.70;110093;1250;71620;-74
2022/01/09 03:08:45;;;;;;;44.00;25.20;;;;;;;-0.07;88.61;96407.67;110227;1250;68398;-71
2022/01/09 03:11:14;;;;;;;;;;;;;;;-0.11;88.82;96405.80;110259;1250;68583;-71
2022/01/09 03:13:44;;;;;;;43.40;23.40;;;;;;;-0.16;89.09;96410.65;110154;1250;59710;-73
2022/01/09 03:16:13;;;;;;;29.90;17.30;;;;;;;-0.17;89.31;96408.52;110048;1250;60091;-70
2022/01/09 03:18:43;;;;;;;36.50;21.40;;;;;;;-0.17;89.22;96408.34;110176;1249;71515;-73
2022/01/09 03:21:12;;;;;;;41.40;24.50;;;;;;;-0.18;89.26;96400.15;109920;1250;67687;-71
2022/01/09 03:23:42;;;;;;;44.00;24.40;;;;;;;-0.21;89.60;96403.56;110037;1249;69222;-72
2022/01/09 03:26:12;;;;;;;44.80;24.70;;;;;;;-0.22;89.59;96402.41;110178;1250;60144;-73
2022/01/09 03:28:41;;;;;;;48.00;26.00;;;;;;;-0.23;89.71;96397.47;110177;1250;59630;-70
2022/01/09 03:31:10;;;;;;;41.70;25.00;;;;;;;-0.23;89.90;96394.56;110167;1250;72018;-73
2022/01/09 03:33:39;;;;;;;45.60;25.10;;;;;;;-0.22;90.07;96391.25;110123;1250;68515;-73
2022/01/09 03:36:09;;;;;;;29.20;18.30;;;;;;;-0.20;89.98;96385.69;110136;1250;69040;-71
2022/01/09 03:38:39;;;;;;;27.00;16.40;;;;;;;-0.15;89.50;96384.44;110134;1250;59685;-70
2022/01/09 03:41:13;;;;;;;25.50;15.50;;;;;;;-0.10;88.93;96385.89;110140;1250;59688;-69
2022/01/09 03:43:48;;;;;;;;;;;;;;;-0.04;88.44;96381.52;110018;1250;71562;-70
2022/01/09 03:46:17;;;;;;;32.90;20.60;;;;;;;-0.00;88.32;96377.91;110055;1249;69092;-71
2022/01/09 03:48:47;;;;;;;41.00;22.90;;;;;;;0.01;88.32;96371.51;110135;1250;69420;-73
2022/01/09 03:51:16;;;;;;;40.10;22.30;;;;;;;-0.04;88.52;96372.57;110008;1250;59734;-73
2022/01/09 03:53:46;;;;;;;40.30;22.10;;;;;;;-0.04;88.47;96375.88;110142;1250;59669;-70
2022/01/09 03:56:15;;;;;;;36.20;21.50;;;;;;;-0.07;88.66;96381.31;109987;1250;71650;-71
2022/01/09 03:58:44;;;;;;;39.80;23.30;;;;;;;-0.09;88.68;96386.36;110018;1251;67867;-73
2022/01/09 04:01:14;;;;;;;42.30;24.00;;;;;;;-0.15;88.76;96394.17;110022;1248;68536;-71
2022/01/09 04:03:44;;;;;;;45.80;24.30;;;;;;;-0.22;89.07;96391.40;110210;1248;59678;-72
2022/01/09 04:06:14;;;;;;;42.10;25.40;;;;;;;-0.27;89.40;96388.38;110216;1248;59676;-71
2022/01/09 04:08:43;;;;;;;36.60;22.50;;;;;;;-0.29;89.47;96386.11;110027;1248;71559;-72
2022/01/09 04:11:22;;;;;;;36.50;21.00;;;;;;;-0.30;89.26;96380.34;110180;1250;67611;-71
2022/01/09 04:13:51;;;;;;;35.10;19.70;;;;;;;-0.28;88.82;96370.48;110158;1250;68708;-70
2022/01/09 04:16:21;;;;;;;;;;;;;;;-0.24;88.53;96371.67;109765;1252;59714;-71
2022/01/09 04:18:51;;;;;;;24.80;16.00;;;;;;;-0.21;87.92;96369.82;110218;1250;59674;-70
2022/01/09 04:21:20;;;;;;;40.20;21.10;;;;;;;-0.20;88.10;96369.94;110162;1250;71377;-71
2022/01/09 04:23:50;;;;;;;23.40;14.30;;;;;;;-0.20;88.51;96378.13;110164;1250;67775;-69
2022/01/09 04:26:21;;;;;;;44.30;22.90;;;;;;;-0.17;88.31;96374.58;110136;1248;68457;-73
2022/01/09 04:28:51;;;;;;;30.30;19.30;;;;;;;-0.16;88.43;96373.33;110141;1250;59700;-71
2022/01/09 04:31:20;;;;;;;39.40;22.30;;;;;;;-0.14;88.43;96377.19;110162;1250;59704;-72
2022/01/09 04:33:50;;;;;;;38.50;23.60;;;;;;;-0.15;88.63;96380.96;110164;1250;70866;-72
2022/01/09 04:36:19;;;;;;;23.80;15.70;;;;;;;-0.15;88.71;96382.04;110152;1250;68602;-71
2022/01/09 04:38:49;;;;;;;26.10;15.90;;;;;;;-0.14;88.23;96374.27;110159;1250;68479;-73
2022/01/09 04:41:18;;;;;;;30.10;18.90;;;;;;;-0.10;88.00;96374.23;110014;1251;60176;-72
2022/01/09 04:43:49;;;;;;;22.80;15.00;;;;;;;-0.09;87.80;96379.84;110148;1250;59736;-72
2022/01/09 04:46:25;;;;;;;38.60;23.60;;;;;;;-0.08;87.70;96378.46;109944;1251;70809;-73
2022/01/09 04:48:55;;;;;;;36.00;21.50;;;;;;;-0.12;88.24;96381.02;109983;1251;68575;-72
2022/01/09 04:51:26;;;;;;;31.30;18.70;;;;;;;-0.16;88.52;96379.16;110163;1250;69529;-72
2022/01/09 04:53:55;;;;;;;25.90;16.60;;;;;;;-0.15;88.21;96370.40;110155;1249;59704;-71
2022/01/09 04:56:24;;;;;;;35.70;22.20;;;;;;;-0.12;87.71;96368.00;110126;1250;59720;-72
2022/01/09 04:58:54;;;;;;;40.70;22.70;;;;;;;-0.12;87.80;96370.23;110172;1250;71949;-71
2022/01/09 05:01:23;;;;;;;39.00;22.50;;;;;;;-0.16;88.32;96371.10;109852;1250;68565;-69
2022/01/09 05:03:52;;;;;;;27.50;16.60;;;;;;;-0.19;88.46;96372.80;109830;1250;69217;-71
2022/01/09 05:06:22;;;;;;;33.20;18.50;;;;;;;-0.18;88.20;96370.67;109801;1250;60269;-71
2022/01/09 05:08:52;;;;;;;21.50;11.80;;;;;;;-0.15;87.67;96360.44;109948;1250;59721;-72
2022/01/09 05:11:21;;;;;;;57.00;25.50;;;;;;;-0.10;87.30;96358.16;110163;1250;71668;-70
2022/01/09 05:13:50;;;;;;;55.50;25.00;;;;;;;-0.12;88.07;96357.08;110016;1251;68401;-70
2022/01/09 05:16:20;;;;;;;40.60;23.60;;;;;;;-0.14;88.41;96364.51;109953;1250;69593;-74
2022/01/09 05:19:02;;;;;;;35.40;20.20;;;;;;;-0.13;88.55;96370.80;109902;1251;59716;-72
2022/01/09 05:21:32;;;;;;;51.50;23.10;;;;;;;-0.12;88.53;96367.17;110206;1247;59670;-72
2022/01/09 05:24:02;;;;;;;28.60;18.20;;;;;;;-0.13;88.55;96361.22;110194;1249;71559;-72
2022/01/09 05:26:31;;;;;;;38.00;20.90;;;;;;;-0.11;88.24;96358.52;110131;1247;68009;-72
2022/01/09 05:29:00;;;;;;;39.80;22.60;;;;;;;-0.08;88.15;96357.20;110207;1248;69961;-73
2022/01/09 05:31:30;;;;;;;28.50;17.50;;;;;;;-0.05;87.98;96356.02;109992;1250;59746;-72
2022/01/09 05:33:59;;;;;;;27.10;16.40;;;;;;;-0.03;87.85;96348.39;110212;1247;59665;-72
2022/01/09 05:36:28;;;;;;;37.70;21.60;;;;;;;0.03;87.61;96350.55;110264;1247;71655;-73
2022/01/09 05:38:57;;;;;;;37.50;21.50;;;;;;;0.02;87.96;96360.33;110183;1250;68614;-73
2022/01/09 05:41:27;;;;;;;39.70;22.80;;;;;;;0.01;87.98;96357.64;110105;1249;69364;-70
2022/01/09 05:43:56;;;;;;;32.60;20.10;;;;;;;-0.01;88.03;96353.08;109999;1251;59677;-71
2022/01/09 05:46:25;;;;;;;35.40;21.40;;;;;;;0.00;87.97;96349.62;110233;1249;59739;-71
2022/01/09 05:48:55;;;;;;;30.40;18.30;;;;;;;-0.01;88.04;96349.33;109962;1251;71589;-70
2022/01/09 05:51:24;;;;;;;42.20;21.90;;;;;;;0.01;87.86;96345.86;110092;1250;68551;-71
2022/01/09 05:53:53;;;;;;;30.30;17.90;;;;;;;-0.04;87.94;96346.89;110024;1250;68670;-71
2022/01/09 05:56:22;;;;;;;30.40;18.40;;;;;;;-0.06;88.01;96348.54;110062;1250;60184;-71
2022/01/09 05:58:51;;;;;;;22.30;13.30;;;;;;;-0.06;87.93;96351.09;109985;1251;60205;-73
2022/01/09 06:01:20;;;;;;;20.30;11.20;;;;;;;-0.03;87.50;96353.17;109847;1250;72585;-72
2022/01/09 06:03:49;;;;;;;22.60;13.30;;;;;;;0.03;87.18;96362.19;110188;1247;67559;-72
2022/01/09 06:06:19;;;;;;;20.70;12.70;;;;;;;0.07;86.90;96363.18;110023;1251;69291;-72
2022/01/09 06:08:51;;;;;;;19.10;12.90;;;;;;;0.10;86.72;96361.85;110062;1250;59702;-73
2022/01/09 06:11:20;;;;;;;21.70;14.80;;;;;;;0.14;86.64;96366.11;110015;1250;59697;-70
2022/01/09 06:13:49;;;;;;;25.50;16.00;;;;;;;0.17;86.52;96369.22;110106;1250;71634;-72
2022/01/09 06:16:18;;;;;;;27.50;17.30;;;;;;;0.17;86.84;96369.89;110042;1250;68250;-72
2022/01/09 06:18:47;;;;;;;26.60;15.80;;;;;;;0.13;87.33;96367.51;110030;1250;69421;-72
2022/01/09 06:21:18;;;;;;;29.60;17.40;;;;;;;0.11;87.14;96367.57;110114;1248;59745;-70
2022/01/09 06:23:47;;;;;;;;;;;;;;;0.07;87.53;96365.23;110052;1250;59725;-72
2022/01/09 06:26:16;;;;;;;31.30;17.30;;;;;;;0.01;87.48;96364.99;110120;1247;72257;-69
2022/01/09 06:28:45;;;;;;;30.90;16.90;;;;;;;-0.05;87.80;96363.74;110107;1250;67832;-70
2022/01/09 06:31:15;;;;;;;39.80;21.00;;;;;;;-0.11;88.28;96364.86;110127;1250;68456;-70
2022/01/09 06:33:44;;;;;;;39.70;21.90;;;;;;;-0.16;88.53;96369.92;110151;1247;59647;-68
2022/01/09 06:36:13;;;;;;;43.60;26.30;;;;;;;-0.19;88.83;96369.71;110074;1250;59695;-68
2022/01/09 06:38:42;;;;;;;38.90;24.30;;;;;;;-0.20;88.80;96377.99;110173;1250;71588;-67
2022/01/09 06:41:11;;;;;;;29.60;19.30;;;;;;;-0.20;88.51;96368.55;110149;1250;67737;-71
2022/01/09 06:43:40;;;;;;;25.80;16.30;;;;;;;-0.17;88.32;96368.95;110140;1248;68676;-70
2022/01/09 06:46:10;;;;;;;16.70;11.00;;;;;;;-0.12;88.12;96369.73;110127;1247;59689;-69
2022/01/09 06:48:39;;;;;;;22.70;14.70;;;;;;;-0.09;87.71;96362.20;110151;1250;59738;-71
2022/01/09 06:51:10;;;;;;;23.70;15.60;;;;;;;-0.05;87.50;96364.79;110133;1248;70847;-71
2022/01/09 06:53:39;;;;;;;27.30;16.80;;;;;;;-0.03;87.32;96366.89;110090;1251;68749;-68
2022/01/09 06:56:08;;;;;;;17.80;13.50;;;;;;;0.02;87.27;96365.30;110129;1250;69254;-68
2022/01/09 06:58:37;;;;;;;37.50;20.70;;;;;;;0.07;87.28;96362.01;110019;1250;60083;-68
2022/01/09 07:01:06;;;;;;;40.80;23.30;;;;;;;0.11;87.33;96361.13;110146;1250;59697;-71
2022/01/09 07:03:34;;;;;;;34.50;22.90;;;;;;;0.13;87.36;96367.48;110095;1251;70932;-70
2022/01/09 07:06:04;;;;;;;68.30;32.10;;;;;;;0.12;87.40;96375.95;110118;1250;67778;-68
2022/01/09 07:08:35;;;;;;;58.30;34.50;;;;;;;0.04;87.68;96379.77;110110;1250;69245;-70
2022/01/09 07:11:05;;;;;;;65.00;30.50;;;;;;;-0.01;87.73;96375.02;110160;1248;59631;-70
2022/01/09 07:13:35;;;;;;;40.60;23.90;;;;;;;-0.03;87.78;96366.36;110150;1250;59749;-73
2022/01/09 07:16:04;;;;;;;42.20;23.90;;;;;;;-0.02;87.81;96368.55;110121;1250;71554;-71
2022/01/09 07:18:33;;;;;;;36.50;22.90;;;;;;;0.00;88.01;96370.54;109926;1248;67842;-73
2022/01/09 07:21:03;;;;;;;34.90;21.00;;;;;;;0.01;88.02;96372.73;110119;1247;69409;-71
2022/01/09 07:23:32;;;;;;;42.20;23.60;;;;;;;0.02;87.84;96374.55;109912;1250;59830;-72
2022/01/09 07:26:01;;;;;;;34.80;19.80;;;;;;;0.03;87.74;96373.48;110155;1248;59583;-70
2022/01/09 07:28:30;;;;;;;32.50;20.10;;;;;;;0.05;87.72;96373.20;109939;1251;71503;-70
2022/01/09 07:31:00;;;;;;;78.80;25.10;;;;;;;0.07;87.58;96374.81;110173;1249;68529;-68
2022/01/09 07:33:34;;;;;;;27.90;18.30;;;;;;;0.02;87.75;96374.23;109911;1250;70124;-68
2022/01/09 07:36:03;;;;;;;86.80;24.20;;;;;;;0.02;87.80;96369.09;110208;1247;60050;-71
2022/01/09 07:38:32;;;;;;;40.20;23.50;;;;;;;0.01;87.88;96372.39;110161;1248;59677;-72
2022/01/09 07:41:01;;;;;;;33.40;20.90;;;;;;;0.01;88.11;96372.05;109941;1248;72123;-69
2022/01/09 07:43:30;;;;;;;39.50;22.10;;;;;;;-0.01;88.22;96371.94;110211;1247;67753;-70
2022/01/09 07:45:58;;;;;;;35.80;20.40;;;;;;;0.01;88.11;96373.94;110190;1247;70060;-71
2022/01/09 07:48:27;;;;;;;38.20;21.50;;;;;;;0.03;88.08;96378.13;110231;1248;59665;-69
2022/01/09 07:50:56;;;;;;;24.00;15.80;;;;;;;0.04;88.05;96376.15;110209;1247;59631;-70
2022/01/09 07:53:26;;;;;;;22.10;14.50;;;;;;;0.10;87.68;96371.80;110174;1248;71561;-70
2022/01/09 07:55:55;;;;;;;16.00;10.50;;;;;;;0.16;87.48;96367.72;110197;1248;69220;-69
2022/01/09 07:58:24;;;;;;;21.60;13.90;;;;;;;0.22;87.21;96361.58;110208;1247;68657;-71
2022/01/09 08:00:53;;;;;;;34.50;20.10;;;;;;;0.28;87.03;96362.69;110054;1251;59783;-69
2022/01/09 08:03:22;;;;;;;23.80;14.20;;;;;;;0.30;86.92;96373.21;110202;1247;59746;-72
2022/01/09 08:05:51;;;;;;;18.80;12.50;;;;;;;0.36;86.79;96370.52;109769;1250;70729;-72
2022/01/09 08:08:20;;;;;;;16.00;11.50;;;;;;;0.42;86.58;96364.71;110131;1250;68723;-71
2022/01/09 08:10:49;;;;;;;16.30;11.20;;;;;;;0.48;86.38;96360.48;109870;1250;70004;-72
2022/01/09 08:13:18;;;;;;;21.60;14.00;;;;;;;0.53;86.22;96360.76;109914;1251;60141;-71
2022/01/09 08:15:47;;;;;;;28.40;17.60;;;;;;;0.58;86.12;96359.52;109929;1250;59673;-72
2022/01/09 08:18:20;;;;;;;21.00;14.50;;;;;;;0.61;85.99;96362.26;110124;1248;72175;-71
2022/01/09 08:20:49;;;;;;;33.20;20.60;;;;;;;0.66;85.65;96366.62;110123;1248;69534;-72
2022/01/09 08:23:18;;;;;;;27.60;17.90;;;;;;;0.61;85.58;96359.33;110089;1247;69759;-70
2022/01/09 08:25:47;;;;;;;42.90;22.40;;;;;;;0.60;85.46;96362.84;109997;1248;59725;-68
2022/01/09 08:28:16;;;;;;;31.90;20.50;;;;;;;0.55;85.69;96366.00;109987;1250;59688;-70
2022/01/09 08:30:45;;;;;;;32.10;20.30;;;;;;;0.55;85.75;96362.94;110030;1249;71544;-72
2022/01/09 08:33:15;;;;;;;34.00;20.70;;;;;;;0.56;85.70;96364.40;110108;1250;69080;-70
2022/01/09 08:35:44;;;;;;;24.50;14.70;;;;;;;0.59;85.76;96358.60;109866;1250;69236;-69
2022/01/09 08:38:13;;;;;;;25.70;17.60;;;;;;;0.68;85.74;96353.16;110069;1250;59759;-71
2022/01/09 08:40:41;;;;;;;62.90;24.40;;;;;;;0.74;85.14;96350.48;110140;1249;59699;-70
2022/01/09 08:43:10;;;;;;;24.50;16.80;;;;;;;0.73;84.89;96353.92;110134;1247;71337;-73
2022/01/09 08:45:39;;;;;;;21.50;14.30;;;;;;;0.80;85.05;96347.91;110031;1250;68616;-72
2022/01/09 08:48:08;;;;;;;32.90;19.90;;;;;;;0.92;85.08;96346.62;110046;1247;70013;-73
2022/01/09 08:50:37;;;;;;;56.80;24.20;;;;;;;1.01;84.44;96347.17;110080;1250;59741;-72
2022/01/09 08:53:07;;;;;;;31.70;20.40;;;;;;;1.01;83.97;96341.19;110071;1248;59685;-71
2022/01/09 08:55:37;;;;;;;27.00;19.50;;;;;;;1.00;83.99;96334.52;110087;1250;72120;-72
2022/01/09 08:58:06;;;;;;;34.10;21.90;;;;;;;1.02;84.03;96333.56;110102;1250;67688;-71
2022/01/09 09:00:35;;;;;;;32.40;21.60;;;;;;;1.01;83.74;96330.67;110071;1249;69400;-73
2022/01/09 09:03:04;;;;;;;14.80;9.50;;;;;;;1.09;83.97;96331.17;110206;1248;60054;-69
2022/01/09 09:05:34;;;;;;;20.50;15.70;;;;;;;1.17;83.73;96331.59;110069;1250;60201;-73
2022/01/09 09:08:03;;;;;;;19.70;13.60;;;;;;;1.22;83.49;96330.15;110170;1248;71406;-72
2022/01/09 09:10:32;;;;;;;29.30;20.00;;;;;;;1.27;83.30;96319.73;109867;1250;68500;-73
2022/01/09 09:13:01;;;;;;;37.00;23.70;;;;;;;1.30;82.79;96323.52;109891;1251;244661;-70
2022/01/09 09:15:29;;;;;;;37.10;23.20;;;;;;;1.27;82.68;96330.55;109895;1247;59767;-74
2022/01/09 09:17:58;;;;;;;181.80;79.70;;;;;;;1.22;82.73;96330.63;109951;1250;59786;-72
2022/01/09 09:20:27;;;;;;;103.90;49.70;;;;;;;1.21;82.91;96326.38;109907;1251;71939;-72
2022/01/09 09:23:01;;;;;;;58.10;30.40;;;;;;;1.33;83.24;96324.40;110012;1249;68954;-71
2022/01/09 09:25:30;;;;;;;43.10;26.60;;;;;;;1.50;83.08;96326.77;110028;1250;70018;-76
2022/01/09 09:27:58;;;;;;;29.80;19.80;;;;;;;1.58;82.06;96328.55;110139;1248;59732;-75
2022/01/09 09:30:27;;;;;;;22.80;16.20;;;;;;;1.61;81.83;96325.51;109982;1250;59626;-73
2022/01/09 09:32:57;;;;;;;20.80;14.70;;;;;;;1.73;82.23;96322.23;110176;1250;70608;-73
2022/01/09 09:35:25;;;;;;;16.50;13.10;;;;;;;1.90;81.85;96327.30;110097;1250;66874;-71
2022/01/09 09:37:55;;;;;;;26.90;18.50;;;;;;;2.02;81.25;96330.57;109996;1251;69362;-72
2022/01/09 09:40:25;;;;;;;19.70;13.40;;;;;;;2.09;81.09;96323.85;109956;1251;59752;-73
2022/01/09 09:42:54;;;;;;;;;;;;;;;2.13;80.92;96319.02;109995;1250;59697;-72
2022/01/09 09:45:26;;;;;;;21.80;15.20;;;;;;;2.08;80.42;96325.29;110004;1251;72487;-75
2022/01/09 09:47:55;;;;;;;18.40;12.50;;;;;;;2.09;80.82;96325.77;110012;1251;67942;-73
2022/01/09 09:50:24;;;;;;;44.40;28.00;;;;;;;2.09;80.60;96328.52;109787;1251;68529;-75
2022/01/09 09:52:53;;;;;;;31.50;21.00;;;;;;;1.99;79.85;96332.82;109994;1247;59740;-73
2022/01/09 09:55:22;;;;;;;29.80;20.00;;;;;;;1.78;80.08;96327.45;110029;1251;59679;-72
2022/01/09 09:57:51;;;;;;;28.80;19.80;;;;;;;1.61;81.09;96324.94;110045;1250;71363;-71
2022/01/09 10:00:21;;;;;;;19.00;13.10;;;;;;;1.51;81.45;96330.44;110050;1251;68552;-75
2022/01/09 10:02:58;;;;;;;22.60;16.70;;;;;;;1.52;81.66;96325.61;109896;1250;69824;-73
2022/01/09 10:05:34;;;;;;;18.80;13.10;;;;;;;1.51;81.63;96324.61;110041;1249;59712;-74
2022/01/09 10:08:11;;;;;;;22.00;16.40;;;;;;;1.53;81.76;96317.33;109918;1249;59695;-72
2022/01/09 10:10:40;;;;;;;20.90;14.20;;;;;;;1.59;81.86;96312.02;109981;1251;71363;-73
2022/01/09 10:13:19;;;;;;;20.20;14.20;;;;;;;1.70;81.75;96310.06;110035;1251;67399;-71
2022/01/09 10:15:51;;;;;;;13.20;10.10;;;;;;;1.78;81.36;96311.66;109998;1251;69830;-69
2022/01/09 10:18:42;;;;;;;12.30;9.80;;;;;;;1.83;81.10;96316.20;110064;1248;59665;-71
2022/01/09 10:21:15;;;;;;;17.40;13.20;;;;;;;1.93;81.04;96311.48;109990;1251;59677;-71
2022/01/09 10:24:08;;;;;;;16.40;12.60;;;;;;;2.01;81.00;96309.14;109892;1250;71612;-75
2022/01/09 10:26:40;;;;;;;12.20;9.00;;;;;;;2.13;80.74;96305.24;110022;1251;68676;-73
2022/01/09 10:29:10;;;;;;;11.60;8.80;;;;;;;2.15;79.39;96303.94;109976;1250;69285;-72
2022/01/09 10:31:48;;;;;;;9.10;7.00;;;;;;;2.16;79.80;96304.85;109778;1250;59720;-72
2022/01/09 10:34:17;;;;;;;11.40;8.40;;;;;;;2.25;79.98;96305.55;110178;1250;59717;-72
2022/01/09 10:36:51;;;;;;;14.40;11.10;;;;;;;2.31;79.82;96300.58;110177;1248;71627;-72
2022/01/09 10:39:34;;;;;;;8.80;7.50;;;;;;;2.33;79.54;96302.20;110175;1248;67930;-72
2022/01/09 10:42:04;;;;;;;15.90;11.00;;;;;;;2.37;79.58;96306.26;110148;1248;67791;-72
2022/01/09 10:44:37;;;;;;;12.50;9.60;;;;;;;2.39;78.87;96300.45;110232;1250;60143;-72
2022/01/09 10:47:14;;;;;;;13.30;8.80;;;;;;;2.40;78.99;96301.12;110177;1249;59694;-72
2022/01/09 10:49:52;;;;;;;8.70;6.10;;;;;;;2.45;79.35;96301.85;109937;1250;71355;-74
2022/01/09 10:52:26;;;;;;;10.80;7.90;;;;;;;2.53;79.35;96300.86;110139;1250;68110;-71
2022/01/09 10:54:58;;;;;;;15.80;11.40;;;;;;;2.54;78.65;96298.03;110016;1251;69407;-73
2022/01/09 10:57:31;;;;;;;11.00;9.10;;;;;;;2.55;78.55;96298.52;110177;1247;59726;-74
2022/01/09 11:00:11;;;;;;;10.10;7.30;;;;;;;2.62;79.13;96301.90;110181;1249;59758;-74
2022/01/09 11:02:40;;;;;;;8.20;6.00;;;;;;;2.70;79.09;96301.45;110178;1248;71973;-74
2022/01/09 11:05:09;;;;;;;13.20;10.60;;;;;;;2.72;78.87;96302.51;110240;1245;68992;-73
2022/01/09 11:07:41;;;;;;;11.20;8.40;;;;;;;2.66;78.70;96299.40;110231;1247;68598;-74
2022/01/09 11:10:10;;;;;;;24.60;13.80;;;;;;;2.62;78.55;96297.75;110189;1247;59697;-72
2022/01/09 11:12:47;;;;;;;78.20;45.40;;;;;;;2.60;78.55;96297.55;110170;1247;59632;-72
2022/01/09 11:15:21;;;;;;;102.60;51.50;;;;;;;2.56;78.57;96300.48;110211;1247;72155;-72
2022/01/09 11:17:51;;;;;;;40.00;25.20;;;;;;;2.49;78.10;96302.10;110185;1247;68556;-73
2022/01/09 11:20:20;;;;;;;21.20;16.00;;;;;;;2.40;77.96;96301.61;110173;1247;70038;-74
2022/01/09 11:22:53;;;;;;;32.30;23.30;;;;;;;2.33;78.36;96300.98;110127;1247;59716;-73
2022/01/09 11:25:42;;;;;;;20.60;17.10;;;;;;;2.28;78.55;96303.33;110068;1248;59745;-75
2022/01/09 11:28:33;;;;;;;14.90;10.70;;;;;;;2.24;78.78;96299.27;110112;1248;71551;-75
2022/01/09 11:31:16;;;;;;;12.30;9.70;;;;;;;2.23;79.04;96294.17;110166;1249;67636;-73